createdAt,value
2023-05-22T00:00:56.051Z,101730.97
2023-05-22T00:03:24.453Z,101734.53
2023-05-22T00:05:50.884Z,101746.94
2023-05-22T00:08:17.253Z,101744.28
2023-05-22T00:10:43.600Z,101738.97
2023-05-22T00:13:09.980Z,101733.69
2023-05-22T00:15:36.361Z,101731.94
2023-05-22T00:18:02.726Z,101739.06
2023-05-22T00:20:29.102Z,101735.53
2023-05-22T00:22:56.888Z,101733.78
2023-05-22T00:25:23.244Z,101734.66
2023-05-22T00:27:49.603Z,101739.13
2023-05-22T00:30:15.995Z,101734.69
2023-05-22T00:32:42.527Z,101740.00
2023-05-22T00:35:09.273Z,101731.16
2023-05-22T00:37:35.781Z,101734.72
2023-05-22T00:40:02.140Z,101729.44
2023-05-22T00:42:28.564Z,101728.50
2023-05-22T00:44:54.920Z,101730.28
2023-05-22T00:47:23.705Z,101728.50
2023-05-22T00:49:50.133Z,101727.63
2023-05-22T00:52:17.731Z,101730.31
2023-05-22T00:54:44.546Z,101730.28
2023-05-22T00:57:11.108Z,101731.16
2023-05-22T00:59:37.884Z,101732.94
2023-05-22T01:02:04.387Z,101732.94
2023-05-22T01:04:32.765Z,101727.63
2023-05-22T01:06:59.315Z,101735.59
2023-05-22T01:09:25.675Z,101729.38
2023-05-22T01:12:10.656Z,101737.34
2023-05-22T01:14:43.111Z,101730.28
2023-05-22T01:17:28.681Z,101729.38
2023-05-22T01:20:07.625Z,101735.53
2023-05-22T01:23:00.216Z,101740.88
2023-05-22T01:25:26.571Z,101734.66
2023-05-22T01:27:52.904Z,101727.56
2023-05-22T01:30:37.372Z,101728.44
2023-05-22T01:33:04.404Z,101728.41
2023-05-22T01:35:33.422Z,101727.53
2023-05-22T01:38:00.259Z,101724.88
2023-05-22T01:40:27.195Z,101728.41
2023-05-22T01:42:53.555Z,101720.47
2023-05-22T01:45:21.243Z,101726.66
2023-05-22T01:47:47.664Z,101721.34
2023-05-22T01:50:14.492Z,101723.09
2023-05-22T01:52:58.987Z,101722.22
2023-05-22T01:55:35.170Z,101726.63
2023-05-22T01:58:37.178Z,101717.78
2023-05-22T02:01:03.986Z,101717.78
2023-05-22T02:03:31.632Z,101719.56
2023-05-22T02:06:00.128Z,101713.31
2023-05-22T02:08:27.592Z,101715.97
2023-05-22T02:10:57.027Z,101714.19
2023-05-22T02:13:23.911Z,101715.97
2023-05-22T02:15:51.078Z,101700.94
2023-05-22T02:18:17.656Z,101712.41
2023-05-22T02:20:45.600Z,101699.13
2023-05-22T02:23:11.988Z,101697.31
2023-05-22T02:25:38.415Z,101696.41
2023-05-22T02:28:04.794Z,101703.50
2023-05-22T02:30:31.241Z,101709.66
2023-05-22T02:32:59.855Z,101703.44
2023-05-22T02:35:26.245Z,101706.09
2023-05-22T02:37:52.643Z,101699.94
2023-05-22T02:40:19.061Z,101707.88
2023-05-22T02:42:45.388Z,101702.56
2023-05-22T02:45:11.759Z,101698.13
2023-05-22T02:47:38.188Z,101692.81
2023-05-22T02:50:04.744Z,101687.50
2023-05-22T02:52:31.555Z,101683.97
2023-05-22T02:54:57.890Z,101684.84
2023-05-22T02:57:24.243Z,101680.44
2023-05-22T02:59:51.124Z,101674.25
2023-05-22T03:02:17.733Z,101670.75
2023-05-22T03:04:44.163Z,101669.84
2023-05-22T03:07:12.242Z,101672.50
2023-05-22T03:09:38.576Z,101668.09
2023-05-22T03:12:05.530Z,101657.47
2023-05-22T03:14:31.917Z,101662.78
2023-05-22T03:16:58.937Z,101658.34
2023-05-22T03:19:25.498Z,101663.63
2023-05-22T03:21:52.014Z,101661.00
2023-05-22T03:24:18.424Z,101661.88
2023-05-22T03:26:44.976Z,101661.88
2023-05-22T03:29:11.444Z,101659.22
2023-05-22T03:31:38.014Z,101656.56
2023-05-22T03:34:05.856Z,101659.22
2023-05-22T03:36:35.172Z,101661.88
2023-05-22T03:39:05.069Z,101659.22
2023-05-22T03:41:31.434Z,101664.53
2023-05-22T03:43:58.102Z,101660.97
2023-05-22T03:46:24.607Z,101668.06
2023-05-22T03:48:51.063Z,101656.56
2023-05-22T03:51:20.010Z,101660.13
2023-05-22T03:53:46.687Z,101661.00
2023-05-22T03:56:13.081Z,101657.47
2023-05-22T03:58:39.487Z,101653.06
2023-05-22T04:01:07.134Z,101652.19
2023-05-22T04:03:33.541Z,101661.03
2023-05-22T04:06:00.064Z,101669.00
2023-05-22T04:08:26.472Z,101657.50
2023-05-22T04:10:54.399Z,101664.59
2023-05-22T04:13:20.992Z,101669.00
2023-05-22T04:15:49.374Z,101658.41
2023-05-22T04:18:15.811Z,101662.84
2023-05-22T04:20:42.803Z,101654.06
2023-05-22T04:23:09.663Z,101653.19
2023-05-22T04:25:36.527Z,101654.06
2023-05-22T04:28:05.640Z,101651.44
2023-05-22T04:30:37.511Z,101645.25
2023-05-22T04:33:05.606Z,101645.28
2023-05-22T04:35:32.198Z,101645.28
2023-05-22T04:38:02.098Z,101645.28
2023-05-22T04:40:30.384Z,101642.66
2023-05-22T04:42:59.942Z,101640.00
2023-05-22T04:45:26.794Z,101639.13
2023-05-22T04:47:53.375Z,101640.03
2023-05-22T04:50:20.571Z,101642.66
2023-05-22T04:52:47.621Z,101641.75
2023-05-22T04:55:14.642Z,101632.00
2023-05-22T04:57:41.220Z,101636.44
2023-05-22T05:00:08.178Z,101631.97
2023-05-22T05:02:34.614Z,101639.03
2023-05-22T05:05:01.091Z,101644.34
2023-05-22T05:07:27.896Z,101634.59
2023-05-22T05:09:54.248Z,101635.47
2023-05-22T05:12:20.593Z,101627.44
2023-05-22T05:14:46.996Z,101630.06
2023-05-22T05:17:13.854Z,101629.09
2023-05-22T05:19:40.341Z,101627.28
2023-05-22T05:22:06.757Z,101620.97
2023-05-22T05:24:33.171Z,101619.09
2023-05-22T05:26:59.608Z,101627.00
2023-05-22T05:29:26.046Z,101624.22
2023-05-22T05:31:52.453Z,101611.69
2023-05-22T05:34:18.863Z,101619.56
2023-05-22T05:36:45.541Z,101627.44
2023-05-22T05:39:12.480Z,101620.16
2023-05-22T05:41:38.857Z,101627.16
2023-05-22T05:44:05.207Z,101621.59
2023-05-22T05:46:31.698Z,101616.97
2023-05-22T05:48:58.507Z,101619.41
2023-05-22T05:51:25.030Z,101616.50
2023-05-22T05:53:51.436Z,101610.84
2023-05-22T05:56:17.924Z,101614.06
2023-05-22T05:58:44.293Z,101616.41
2023-05-22T06:01:11.817Z,101616.13
2023-05-22T06:03:38.441Z,101611.31
2023-05-22T06:06:05.219Z,101607.50
2023-05-22T06:08:32.254Z,101603.47
2023-05-22T06:10:58.771Z,101605.69
2023-05-22T06:13:25.124Z,101599.97
2023-05-22T06:15:51.865Z,101600.22
2023-05-22T06:18:18.259Z,101602.59
2023-05-22T06:20:44.659Z,101598.19
2023-05-22T06:23:11.048Z,101597.09
2023-05-22T06:25:39.701Z,101596.59
2023-05-22T06:28:06.399Z,101592.16
2023-05-22T06:33:05.155Z,101594.59
2023-05-22T06:35:31.636Z,101594.13
2023-05-22T06:37:58.976Z,101593.84
2023-05-22T06:40:25.597Z,101594.66
2023-05-22T06:42:52.624Z,101595.97
2023-05-22T06:45:19.929Z,101595.72
2023-05-22T06:47:46.527Z,101594.25
2023-05-22T06:50:12.957Z,101601.06
2023-05-22T06:52:39.354Z,101599.72
2023-05-22T06:55:06.969Z,101602.06
2023-05-22T06:57:33.439Z,101592.66
2023-05-22T07:00:00.410Z,101592.19
2023-05-22T07:02:26.915Z,101588.19
2023-05-22T07:04:54.067Z,101591.25
2023-05-22T07:07:20.696Z,101595.81
2023-05-22T07:09:47.199Z,101596.94
2023-05-22T07:12:13.657Z,101588.84
2023-05-22T07:14:40.158Z,101593.44
2023-05-22T07:17:06.548Z,101588.94
2023-05-22T07:19:33.009Z,101583.56
2023-05-22T07:22:00.181Z,101595.97
2023-05-22T07:24:26.651Z,101591.38
2023-05-22T07:26:53.030Z,101596.59
2023-05-22T07:29:20.739Z,101587.50
2023-05-22T07:31:48.370Z,101594.50
2023-05-22T07:34:14.816Z,101586.25
2023-05-22T07:36:41.193Z,101578.06
2023-05-22T07:39:09.540Z,101579.69
2023-05-22T07:41:36.120Z,101583.47
2023-05-22T07:44:02.604Z,101576.13
2023-05-22T07:46:29.103Z,101579.63
2023-05-22T07:48:59.030Z,101574.19
2023-05-22T07:51:25.390Z,101581.50
2023-05-22T07:53:51.764Z,101577.75
2023-05-22T07:56:18.174Z,101574.28
2023-05-22T07:58:47.700Z,101566.72
2023-05-22T08:01:15.603Z,101567.91
2023-05-22T08:03:42.238Z,101576.63
2023-05-22T08:06:08.709Z,101581.06
2023-05-22T08:08:35.077Z,101576.84
2023-05-22T08:11:04.131Z,101577.88
2023-05-22T08:13:31.307Z,101576.56
2023-05-22T08:16:00.170Z,101583.19
2023-05-22T08:18:29.166Z,101574.97
2023-05-22T08:20:55.968Z,101584.31
2023-05-22T08:23:22.477Z,101577.16
2023-05-22T08:25:50.101Z,101571.50
2023-05-22T08:28:16.509Z,101573.34
2023-05-22T08:30:42.964Z,101576.50
2023-05-22T08:33:09.409Z,101569.59
2023-05-22T08:35:35.965Z,101570.66
2023-05-22T08:38:02.330Z,101579.66
2023-05-22T08:40:39.385Z,101566.00
2023-05-22T08:43:06.460Z,101563.84
2023-05-22T08:45:35.602Z,101556.03
2023-05-22T08:48:05.470Z,101556.00
2023-05-22T08:50:32.242Z,101551.69
2023-05-22T08:53:01.969Z,101549.59
2023-05-22T08:55:28.559Z,101554.53
2023-05-22T08:57:56.120Z,101551.63
2023-05-22T09:00:22.827Z,101553.59
2023-05-22T09:02:49.685Z,101539.25
2023-05-22T09:05:17.592Z,101537.41
2023-05-22T09:07:45.044Z,101541.81
2023-05-22T09:10:11.661Z,101528.88
2023-05-22T09:12:38.060Z,101542.16
2023-05-22T09:15:10.962Z,101542.66
2023-05-22T09:17:41.193Z,101536.31
2023-05-22T09:20:10.142Z,101526.03
2023-05-22T09:22:39.925Z,101530.13
2023-05-22T09:25:07.042Z,101527.28
2023-05-22T09:27:33.837Z,101523.59
2023-05-22T09:30:00.259Z,101530.28
2023-05-22T09:32:29.481Z,101527.34
2023-05-22T09:35:01.972Z,101528.78
2023-05-22T09:37:28.552Z,101522.44
2023-05-22T09:39:56.412Z,101517.63
2023-05-22T09:42:24.276Z,101516.31
2023-05-22T09:44:51.466Z,101510.34
2023-05-22T09:47:17.973Z,101511.66
2023-05-22T09:49:44.916Z,101508.31
2023-05-22T09:52:12.501Z,101512.88
2023-05-22T09:54:45.333Z,101512.16
2023-05-22T09:57:14.074Z,101498.41
2023-05-22T09:59:41.738Z,101508.19
2023-05-22T10:02:08.820Z,101490.53
2023-05-22T10:04:36.709Z,101505.81
2023-05-22T10:07:03.962Z,101498.31
2023-05-22T10:09:34.325Z,101503.97
2023-05-22T10:12:04.128Z,101490.28
2023-05-22T10:14:33.264Z,101491.81
2023-05-22T10:17:04.716Z,101476.88
2023-05-22T10:19:33.035Z,101483.06
2023-05-22T10:22:00.427Z,101474.44
2023-05-22T10:24:27.375Z,101465.25
2023-05-22T10:26:54.342Z,101467.84
2023-05-22T10:29:29.398Z,101470.03
2023-05-22T10:32:01.603Z,101467.69
2023-05-22T10:34:38.302Z,101479.28
2023-05-22T10:37:16.532Z,101471.22
2023-05-22T10:39:51.622Z,101469.06
2023-05-22T10:42:18.117Z,101463.22
2023-05-22T10:44:44.475Z,101467.09
2023-05-22T10:47:12.586Z,101463.53
2023-05-22T10:49:45.444Z,101465.13
2023-05-22T10:52:14.493Z,101463.81
2023-05-22T10:54:44.942Z,101450.84
2023-05-22T10:57:17.743Z,101450.84
2023-05-22T11:00:04.051Z,101453.44
2023-05-22T11:02:36.513Z,101453.75
2023-05-22T11:05:34.405Z,101450.75
2023-05-22T11:08:29.744Z,101448.00
2023-05-22T11:10:58.892Z,101439.06
2023-05-22T11:13:28.150Z,101438.72
2023-05-22T11:15:56.455Z,101441.69
2023-05-22T11:18:23.653Z,101435.09
2023-05-22T11:20:50.036Z,101436.25
2023-05-22T11:23:17.998Z,101442.31
2023-05-22T11:25:44.445Z,101442.38
2023-05-22T11:28:11.756Z,101435.72
2023-05-22T11:30:38.660Z,101434.31
2023-05-22T11:33:06.383Z,101426.34
2023-05-22T11:35:33.083Z,101418.25
2023-05-22T11:37:59.584Z,101420.88
2023-05-22T11:40:27.440Z,101414.78
2023-05-22T11:42:54.110Z,101411.81
2023-05-22T11:45:21.399Z,101419.31
2023-05-22T11:47:48.721Z,101412.41
2023-05-22T11:50:22.788Z,101419.56
2023-05-22T11:52:56.444Z,101409.16
2023-05-22T11:55:22.941Z,101405.44
2023-05-22T11:57:49.278Z,101406.66
2023-05-22T12:00:16.019Z,101400.34
2023-05-22T12:02:46.544Z,101398.47
2023-05-22T12:05:13.982Z,101397.13
2023-05-22T12:07:40.623Z,101404.75
2023-05-22T12:10:08.172Z,101402.41
2023-05-22T12:12:34.725Z,101395.25
2023-05-22T12:15:01.235Z,101406.41
2023-05-22T12:17:28.461Z,101391.94
2023-05-22T12:19:54.950Z,101384.53
2023-05-22T12:22:23.449Z,101382.16
2023-05-22T12:24:52.202Z,101380.50
2023-05-22T12:27:18.588Z,101376.34
2023-05-22T12:29:44.945Z,101381.66
2023-05-22T12:32:12.513Z,101380.25
2023-05-22T12:34:43.783Z,101368.41
2023-05-22T12:37:20.302Z,101377.41
2023-05-22T12:39:53.401Z,101376.72
2023-05-22T12:42:19.750Z,101365.88
2023-05-22T12:44:46.495Z,101374.25
2023-05-22T12:47:12.858Z,101371.03
2023-05-22T12:49:39.242Z,101377.72
2023-05-22T12:52:05.635Z,101370.31
2023-05-22T12:54:31.971Z,101371.56
2023-05-22T12:56:58.351Z,101373.13
2023-05-22T12:59:24.727Z,101371.63
2023-05-22T13:01:51.358Z,101375.47
2023-05-22T13:04:18.074Z,101372.66
2023-05-22T13:06:44.469Z,101365.78
2023-05-22T13:09:11.148Z,101367.41
2023-05-22T13:11:39.715Z,101362.78
2023-05-22T13:14:06.132Z,101362.25
2023-05-22T13:16:32.661Z,101366.00
2023-05-22T13:18:59.162Z,101359.13
2023-05-22T13:21:26.795Z,101355.50
2023-05-22T13:23:53.193Z,101362.09
2023-05-22T13:26:19.534Z,101346.53
2023-05-22T13:28:46.098Z,101351.72
2023-05-22T13:31:12.452Z,101343.66
2023-05-22T13:33:38.816Z,101348.63
2023-05-22T13:36:05.515Z,101342.44
2023-05-22T13:38:31.852Z,101343.34
2023-05-22T13:40:58.221Z,101336.47
2023-05-22T13:43:24.560Z,101337.47
2023-05-22T13:45:50.973Z,101333.88
2023-05-22T13:48:17.439Z,101331.16
2023-05-22T13:50:43.850Z,101324.22
2023-05-22T13:53:10.307Z,101329.75
2023-05-22T13:55:36.648Z,101329.53
2023-05-22T13:58:04.064Z,101324.28
2023-05-22T14:00:30.634Z,101319.72
2023-05-22T14:02:57.113Z,101319.84
2023-05-22T14:05:24.188Z,101318.13
2023-05-22T14:07:51.292Z,101323.00
2023-05-22T14:10:17.752Z,101317.50
2023-05-22T14:12:44.150Z,101314.53
2023-05-22T14:15:10.687Z,101315.06
2023-05-22T14:17:37.220Z,101308.94
2023-05-22T14:20:04.329Z,101296.06
2023-05-22T14:22:34.168Z,101298.63
2023-05-22T14:25:03.050Z,101293.25
2023-05-22T14:27:29.405Z,101286.34
2023-05-22T14:29:55.818Z,101284.06
2023-05-22T14:32:22.174Z,101284.59
2023-05-22T14:34:48.532Z,101288.44
2023-05-22T14:37:14.907Z,101274.59
2023-05-22T14:39:41.259Z,101276.63
2023-05-22T14:42:07.750Z,101262.47
2023-05-22T14:44:34.202Z,101269.56
2023-05-22T14:47:00.660Z,101267.19
2023-05-22T14:49:27.025Z,101261.31
2023-05-22T14:51:54.581Z,101256.56
2023-05-22T14:54:23.576Z,101258.41
2023-05-22T14:56:49.960Z,101256.88
2023-05-22T14:59:16.843Z,101250.22
2023-05-22T15:01:43.274Z,101258.22
2023-05-22T15:04:09.823Z,101242.38
2023-05-22T15:06:36.442Z,101241.13
2023-05-22T15:09:03.008Z,101238.09
2023-05-22T15:11:29.526Z,101238.78
2023-05-22T15:13:56.228Z,101228.00
2023-05-22T15:16:22.729Z,101222.28
2023-05-22T15:18:49.213Z,101218.00
2023-05-22T15:21:15.881Z,101222.50
2023-05-22T15:23:42.988Z,101237.78
2023-05-22T15:26:09.485Z,101225.03
2023-05-22T15:28:35.892Z,101214.47
2023-05-22T15:31:02.261Z,101202.13
2023-05-22T15:33:28.657Z,101208.16
2023-05-22T15:35:55.082Z,101204.72
2023-05-22T15:38:21.448Z,101201.84
2023-05-22T15:40:47.854Z,101203.44
2023-05-22T15:43:14.223Z,101204.16
2023-05-22T15:45:40.913Z,101193.44
2023-05-22T15:48:07.857Z,101207.09
2023-05-22T15:50:35.283Z,101201.66
2023-05-22T15:53:02.160Z,101200.41
2023-05-22T15:55:28.524Z,101205.56
2023-05-22T15:57:55.041Z,101184.75
2023-05-22T16:00:21.540Z,101192.59
2023-05-22T16:02:48.985Z,101193.38
2023-05-22T16:05:15.711Z,101192.75
2023-05-22T16:07:42.260Z,101192.16
2023-05-22T16:10:08.966Z,101189.25
2023-05-22T16:12:35.638Z,101189.84
2023-05-22T16:15:03.829Z,101191.09
2023-05-22T16:17:31.800Z,101186.38
2023-05-22T16:19:58.252Z,101188.25
2023-05-22T16:22:30.380Z,101190.22
2023-05-22T16:25:03.079Z,101187.66
2023-05-22T16:27:29.459Z,101183.09
2023-05-22T16:29:55.881Z,101191.41
2023-05-22T16:32:22.319Z,101197.06
2023-05-22T16:34:48.692Z,101182.44
2023-05-22T16:37:15.046Z,101186.22
2023-05-22T16:39:45.123Z,101185.63
2023-05-22T16:42:11.601Z,101185.72
2023-05-22T16:44:38.173Z,101184.25
2023-05-22T16:47:04.895Z,101185.56
2023-05-22T16:49:31.330Z,101187.31
2023-05-22T16:51:57.679Z,101185.81
2023-05-22T16:54:24.039Z,101173.75
2023-05-22T16:56:50.409Z,101167.31
2023-05-22T16:59:16.769Z,101175.78
2023-05-22T17:01:45.152Z,101162.78
2023-05-22T17:04:14.791Z,101154.03
2023-05-22T17:06:42.241Z,101155.34
2023-05-22T17:09:09.972Z,101153.53
2023-05-22T17:11:36.626Z,101150.25
2023-05-22T17:14:03.664Z,101147.69
2023-05-22T17:16:30.829Z,101138.88
2023-05-22T17:18:57.227Z,101138.91
2023-05-22T17:21:24.211Z,101140.84
2023-05-22T17:23:50.583Z,101139.16
2023-05-22T17:26:16.979Z,101133.84
2023-05-22T17:28:43.304Z,101134.94
2023-05-22T17:31:09.658Z,101135.19
2023-05-22T17:33:36.023Z,101138.16
2023-05-22T17:36:02.362Z,101141.13
2023-05-22T17:38:28.826Z,101142.97
2023-05-22T17:40:56.060Z,101139.66
2023-05-22T17:43:22.414Z,101141.69
2023-05-22T17:45:52.831Z,101139.88
2023-05-22T17:48:26.735Z,101149.88
2023-05-22T17:50:53.647Z,101156.28
2023-05-22T17:53:20.969Z,101144.66
2023-05-22T17:55:48.279Z,101148.38
2023-05-22T17:58:14.910Z,101143.91
2023-05-22T18:00:41.381Z,101142.25
2023-05-22T18:03:08.114Z,101143.25
2023-05-22T18:05:34.933Z,101147.66
2023-05-22T18:08:01.350Z,101145.47
2023-05-22T18:10:27.859Z,101151.88
2023-05-22T18:12:54.263Z,101145.78
2023-05-22T18:15:20.634Z,101154.84
2023-05-22T18:17:47.300Z,101154.97
2023-05-22T18:20:13.759Z,101161.28
2023-05-22T18:22:40.163Z,101181.16
2023-05-22T18:25:06.918Z,101187.41
2023-05-22T18:27:33.515Z,101195.66
2023-05-22T18:29:59.872Z,101208.28
2023-05-22T18:32:26.211Z,101227.94
2023-05-22T18:34:52.722Z,101223.53
2023-05-22T18:37:19.490Z,101215.50
2023-05-22T18:39:46.302Z,101205.56
2023-05-22T18:42:13.107Z,101219.88
2023-05-22T18:44:39.667Z,101213.84
2023-05-22T18:47:06.243Z,101218.31
2023-05-22T18:49:32.994Z,101214.97
2023-05-22T18:51:59.412Z,101214.19
2023-05-22T18:54:25.871Z,101227.63
2023-05-22T18:56:52.409Z,101230.41
2023-05-22T18:59:18.763Z,101226.94
2023-05-22T19:01:45.222Z,101232.22
2023-05-22T19:04:11.755Z,101238.53
2023-05-22T19:06:42.087Z,101241.38
2023-05-22T19:09:09.975Z,101239.63
2023-05-22T19:11:36.465Z,101234.38
2023-05-22T19:14:02.981Z,101230.88
2023-05-22T19:16:29.374Z,101235.53
2023-05-22T19:18:55.826Z,101243.59
2023-05-22T19:21:22.302Z,101240.31
2023-05-22T19:23:49.201Z,101236.88
2023-05-22T19:26:15.623Z,101240.84
2023-05-22T19:28:42.158Z,101243.16
2023-05-22T19:31:08.621Z,101234.75
2023-05-22T19:33:35.053Z,101245.56
2023-05-22T19:36:06.517Z,101252.00
2023-05-22T19:38:33.011Z,101252.81
2023-05-22T19:40:59.386Z,101247.44
2023-05-22T19:43:25.857Z,101242.28
2023-05-22T19:45:52.387Z,101245.25
2023-05-22T19:48:18.792Z,101257.06
2023-05-22T19:50:45.156Z,101251.69
2023-05-22T19:53:11.529Z,101255.06
2023-05-22T19:55:37.896Z,101253.28
2023-05-22T19:58:04.298Z,101248.75
2023-05-22T20:00:31.766Z,101249.75
2023-05-22T20:02:58.262Z,101256.03
2023-05-22T20:05:26.028Z,101269.34
2023-05-22T20:07:52.443Z,101270.16
2023-05-22T20:10:18.940Z,101265.72
2023-05-22T20:12:46.008Z,101272.81
2023-05-22T20:15:14.719Z,101282.59
2023-05-22T20:17:41.919Z,101282.63
2023-05-22T20:20:09.525Z,101277.50
2023-05-22T20:22:36.147Z,101276.13
2023-05-22T20:25:05.183Z,101266.69
2023-05-22T20:27:31.730Z,101276.84
2023-05-22T20:29:59.988Z,101278.78
2023-05-22T20:32:26.807Z,101282.66
2023-05-22T20:34:55.244Z,101296.19
2023-05-22T20:37:21.978Z,101296.38
2023-05-22T20:39:49.992Z,101296.56
2023-05-22T20:42:19.428Z,101295.81
2023-05-22T20:44:46.199Z,101290.66
2023-05-22T20:47:12.604Z,101292.63
2023-05-22T20:49:38.979Z,101295.53
2023-05-22T20:52:05.735Z,101292.97
2023-05-22T20:54:34.411Z,101287.72
2023-05-22T20:57:01.514Z,101288.66
2023-05-22T20:59:28.954Z,101296.81
2023-05-22T21:01:56.561Z,101304.19
2023-05-22T21:04:22.961Z,101303.34
2023-05-22T21:06:49.448Z,101306.03
2023-05-22T21:09:15.875Z,101303.41
2023-05-22T21:11:42.230Z,101297.31
2023-05-22T21:14:08.595Z,101296.53
2023-05-22T21:16:36.929Z,101301.91
2023-05-22T21:19:05.245Z,101299.25
2023-05-22T21:21:32.127Z,101295.88
2023-05-22T21:23:58.484Z,101302.97
2023-05-22T21:26:24.833Z,101295.97
2023-05-22T21:28:51.335Z,101294.22
2023-05-22T21:31:17.745Z,101285.41
2023-05-22T21:33:44.928Z,101293.41
2023-05-22T21:36:11.279Z,101295.28
2023-05-22T21:38:37.622Z,101281.94
2023-05-22T21:41:04.114Z,101284.59
2023-05-22T21:43:30.462Z,101280.19
2023-05-22T21:45:56.810Z,101293.56
2023-05-22T21:48:23.241Z,101290.94
2023-05-22T21:50:50.193Z,101294.56
2023-05-22T21:53:16.535Z,101287.50
2023-05-22T21:55:42.875Z,101285.78
2023-05-22T21:58:10.269Z,101281.38
2023-05-22T22:00:37.188Z,101282.31
2023-05-22T22:03:04.192Z,101277.94
2023-05-22T22:05:30.780Z,101281.53
2023-05-22T22:07:57.133Z,101275.25
2023-05-22T22:10:23.545Z,101282.38
2023-05-22T22:12:49.962Z,101286.88
2023-05-22T22:15:16.552Z,101282.44
2023-05-22T22:17:42.972Z,101283.25
2023-05-22T22:20:09.927Z,101276.19
2023-05-22T22:22:36.380Z,101268.19
2023-05-22T22:25:03.026Z,101259.28
2023-05-22T22:27:29.355Z,101260.13
2023-05-22T22:29:55.698Z,101255.72
2023-05-22T22:32:22.047Z,101252.25
2023-05-22T22:34:53.616Z,101244.38
2023-05-22T22:37:21.411Z,101239.13
2023-05-22T22:39:47.842Z,101227.81
2023-05-22T22:42:14.242Z,101234.84
2023-05-22T22:44:40.738Z,101227.81
2023-05-22T22:47:08.543Z,101238.44
2023-05-22T22:49:35.008Z,101236.69
2023-05-22T22:52:01.673Z,101224.25
2023-05-22T22:54:28.080Z,101225.16
2023-05-22T22:56:54.513Z,101219.84
2023-05-22T22:59:21.209Z,101210.13
2023-05-22T23:01:47.584Z,101213.69
2023-05-22T23:04:14.359Z,101218.13
2023-05-22T23:06:43.528Z,101219.03
2023-05-22T23:09:11.012Z,101211.88
2023-05-22T23:11:37.936Z,101214.47
2023-05-22T23:14:07.317Z,101217.06
2023-05-22T23:16:37.028Z,101217.03
2023-05-22T23:19:04.005Z,101210.81
2023-05-22T23:21:30.727Z,101202.03
2023-05-22T23:23:57.130Z,101202.09
2023-05-22T23:26:23.634Z,101198.53
2023-05-22T23:28:50.072Z,101202.00
2023-05-22T23:31:17.448Z,101196.78
2023-05-22T23:33:44.008Z,101189.69
2023-05-22T23:36:10.429Z,101185.31
2023-05-22T23:38:36.877Z,101183.59
2023-05-22T23:41:03.234Z,101180.03
2023-05-22T23:43:29.600Z,101182.75
2023-05-22T23:45:56.219Z,101162.41
2023-05-22T23:48:22.626Z,101170.41
2023-05-22T23:50:48.968Z,101176.59
2023-05-22T23:53:15.457Z,101166.81
2023-05-22T23:55:42.318Z,101157.97
2023-05-22T23:58:08.906Z,101162.41
